Time;durP1;ratioP1;P1;durP2;ratioP2;P2;SDS_P1;SDS_P2;PMS_P1;PMS_P2;Temp;Humidity;BMP_temperature;BMP_pressure;BME280_temperature;BME280_humidity;BME280_pressure;Samples;Min_cycle;Max_cycle;Signal;HPM_P1;HPM_P2
2023/08/04 00:00:46;;;;;;;1.48;1.23;;;18.40;52.20;;;;;;20494;6839;307140;-70
2023/08/04 00:03:12;;;;;;;0.80;0.80;;;18.40;52.10;;;;;;20729;6839;117622;-70
2023/08/04 00:05:37;;;;;;;2.85;1.00;;;18.30;52.10;;;;;;20693;6854;117366;-69
2023/08/04 00:08:03;;;;;;;1.57;1.00;;;18.10;52.40;;;;;;20713;6839;120275;-70
2023/08/04 00:10:30;;;;;;;2.20;1.30;;;17.90;52.70;;;;;;20415;6854;279037;-70
2023/08/04 00:12:57;;;;;;;2.00;1.00;;;18.40;52.10;;;;;;20450;6854;280715;-70
2023/08/04 00:15:22;;;;;;;1.10;0.90;;;18.30;52.00;;;;;;20695;6839;117477;-70
2023/08/04 00:17:48;;;;;;;1.00;0.90;;;18.20;52.10;;;;;;20728;6839;117545;-69
2023/08/04 00:20:13;;;;;;;1.30;1.10;;;17.90;52.50;;;;;;20751;6834;123214;-70
2023/08/04 00:22:39;;;;;;;1.47;1.37;;;17.60;52.90;;;;;;20708;6839;123370;-70
2023/08/04 00:25:05;;;;;;;1.25;1.17;;;17.40;53.40;;;;;;20749;6835;117336;-70
2023/08/04 00:27:30;;;;;;;1.20;1.10;;;17.20;53.70;;;;;;20517;6839;279773;-69
2023/08/04 00:29:56;;;;;;;1.92;1.00;;;17.40;53.90;;;;;;20746;6835;117133;-70
2023/08/04 00:32:21;;;;;;;1.00;1.00;;;17.40;53.80;;;;;;20513;6839;312101;-70
2023/08/04 00:34:47;;;;;;;1.73;1.12;;;17.60;53.40;;;;;;20725;6835;117138;-70
2023/08/04 00:37:13;;;;;;;1.10;1.00;;;17.60;53.40;;;;;;20528;6835;336906;-70
2023/08/04 00:39:39;;;;;;;1.25;1.10;;;17.80;53.30;;;;;;20537;6835;336523;-70
2023/08/04 00:42:05;;;;;;;1.12;0.90;;;17.90;53.00;;;;;;20744;6835;117467;-70
2023/08/04 00:44:30;;;;;;;2.40;0.80;;;17.80;52.90;;;;;;20719;6835;117989;-70
2023/08/04 00:46:56;;;;;;;1.35;1.00;;;17.60;53.50;;;;;;20479;6854;284899;-70
2023/08/04 00:49:22;;;;;;;2.30;1.00;;;18.00;53.30;;;;;;20510;6839;307946;-70
2023/08/04 00:51:48;;;;;;;1.43;1.00;;;18.00;53.20;;;;;;20727;6839;117548;-70
2023/08/04 00:54:13;;;;;;;0.82;0.80;;;17.90;53.20;;;;;;20745;6835;117079;-70
2023/08/04 00:56:39;;;;;;;0.90;0.70;;;17.60;53.50;;;;;;20711;6838;117165;-70
2023/08/04 00:59:05;;;;;;;0.65;0.60;;;17.40;53.90;;;;;;20744;6834;117644;-70
2023/08/04 01:01:30;;;;;;;1.00;0.70;;;17.20;54.10;;;;;;20514;6839;306564;-70
2023/08/04 01:03:56;;;;;;;1.80;0.83;;;17.50;53.80;;;;;;20730;6839;117737;-70
2023/08/04 01:06:21;;;;;;;1.57;0.83;;;17.50;53.70;;;;;;20510;6839;336996;-69
2023/08/04 01:08:47;;;;;;;1.33;0.77;;;17.70;53.60;;;;;;20659;6854;123678;-70
2023/08/04 01:11:13;;;;;;;1.92;1.05;;;17.40;53.90;;;;;;20710;6839;120914;-70
2023/08/04 01:13:39;;;;;;;1.63;1.17;;;17.40;53.90;;;;;;20722;6839;117624;-70
2023/08/04 01:16:05;;;;;;;0.80;0.80;;;17.10;54.50;;;;;;20748;6834;117554;-70
2023/08/04 01:18:31;;;;;;;1.15;1.05;;;17.10;54.50;;;;;;20489;6839;306181;-70
2023/08/04 01:21:02;;;;;;;1.33;0.80;;;17.30;54.20;;;;;;20530;6834;336020;-69
2023/08/04 01:23:28;;;;;;;0.70;0.67;;;17.70;54.10;;;;;;20730;6834;117318;-71
2023/08/04 01:25:53;;;;;;;1.63;0.67;;;17.70;53.40;;;;;;20724;6839;117301;-70
2023/08/04 01:28:20;;;;;;;4.32;1.00;;;17.20;54.80;;;;;;20730;6839;117044;-70
2023/08/04 01:30:45;;;;;;;0.80;0.80;;;17.20;54.10;;;;;;20715;6834;117257;-70
2023/08/04 01:33:11;;;;;;;1.07;0.80;;;17.00;54.50;;;;;;20723;6839;117120;-70
2023/08/04 01:35:36;;;;;;;2.08;1.00;;;16.90;54.80;;;;;;20525;6835;306830;-70
2023/08/04 01:38:03;;;;;;;1.30;1.00;;;17.60;54.40;;;;;;20536;6835;278140;-71
2023/08/04 01:40:28;;;;;;;2.63;1.10;;;17.50;54.20;;;;;;20509;6835;307048;-71
2023/08/04 01:42:54;;;;;;;0.93;0.80;;;17.90;53.50;;;;;;20724;6839;117340;-70
2023/08/04 01:45:20;;;;;;;2.83;0.90;;;17.80;53.60;;;;;;20725;6839;117116;-70
2023/08/04 01:47:47;;;;;;;2.00;1.10;;;17.60;53.60;;;;;;20511;6839;308214;-70
2023/08/04 01:50:12;;;;;;;1.20;1.10;;;17.60;53.50;;;;;;20510;6839;280015;-71
2023/08/04 01:52:38;;;;;;;2.50;1.80;;;17.90;53.70;;;;;;20448;6854;329401;-70
2023/08/04 01:55:04;;;;;;;4.18;1.05;;;18.00;53.20;;;;;;20727;6839;120577;-70
2023/08/04 01:57:30;;;;;;;1.10;1.00;;;18.00;53.10;;;;;;20515;6839;277762;-70
2023/08/04 01:59:56;;;;;;;2.45;1.10;;;18.10;53.90;;;;;;20515;6839;299636;-70
2023/08/04 02:02:21;;;;;;;5.82;1.00;;;18.40;53.30;;;;;;20741;6839;117236;-71
2023/08/04 02:04:47;;;;;;;3.20;1.20;;;18.10;53.50;;;;;;20509;6835;336789;-71
2023/08/04 02:07:12;;;;;;;4.00;1.30;;;18.20;53.70;;;;;;20536;6833;277983;-69
2023/08/04 02:09:38;;;;;;;1.75;0.82;;;18.40;53.70;;;;;;20744;6834;117537;-70
2023/08/04 02:12:04;;;;;;;1.53;1.00;;;18.10;53.70;;;;;;20530;6834;301419;-70
2023/08/04 02:14:29;;;;;;;2.30;0.87;;;18.10;53.30;;;;;;20704;6839;127098;-70
2023/08/04 02:16:55;;;;;;;1.87;0.90;;;17.90;53.60;;;;;;20516;6839;336419;-70
2023/08/04 02:19:24;;;;;;;3.23;1.17;;;18.00;54.40;;;;;;20719;6839;117009;-71
2023/08/04 02:21:49;;;;;;;1.90;1.20;;;17.80;54.50;;;;;;20740;6834;117453;-70
2023/08/04 02:24:15;;;;;;;3.57;0.90;;;17.60;54.90;;;;;;20724;6839;122175;-69
2023/08/04 02:26:41;;;;;;;1.60;1.10;;;17.30;55.20;;;;;;20514;6834;305948;-70
2023/08/04 02:29:06;;;;;;;1.75;1.15;;;17.50;54.80;;;;;;20508;6839;309857;-69
2023/08/04 02:31:32;;;;;;;1.70;1.33;;;17.80;54.10;;;;;;20725;6839;117380;-70
2023/08/04 02:33:57;;;;;;;1.53;0.80;;;17.70;54.00;;;;;;20716;6839;117797;-70
2023/08/04 02:36:23;;;;;;;1.17;1.00;;;17.50;54.60;;;;;;20741;6834;119428;-69
2023/08/04 02:38:48;;;;;;;2.20;1.37;;;17.20;55.70;;;;;;20491;6839;280200;-71
2023/08/04 02:41:14;;;;;;;1.10;1.00;;;17.30;55.10;;;;;;20727;6839;117568;-70
2023/08/04 02:43:39;;;;;;;3.17;1.20;;;17.30;55.10;;;;;;20508;6839;316362;-70
2023/08/04 02:46:05;;;;;;;2.60;1.20;;;17.40;55.30;;;;;;20508;6839;307633;-70
2023/08/04 02:48:31;;;;;;;1.37;1.23;;;18.00;54.20;;;;;;20511;6835;307715;-70
2023/08/04 02:51:01;;;;;;;2.03;1.23;;;18.20;55.00;;;;;;20524;6835;308003;-70
2023/08/04 02:53:26;;;;;;;2.23;1.53;;;18.10;54.20;;;;;;20725;6839;116360;-70
2023/08/04 02:55:52;;;;;;;3.62;1.40;;;18.00;54.60;;;;;;20524;6839;308036;-71
2023/08/04 02:58:18;;;;;;;1.70;1.20;;;18.00;54.40;;;;;;20731;6839;117670;-71
2023/08/04 03:00:43;;;;;;;1.70;1.23;;;17.90;54.50;;;;;;20727;6835;117377;-70
2023/08/04 03:03:09;;;;;;;1.98;1.00;;;17.40;55.40;;;;;;20740;6835;117681;-71
2023/08/04 03:05:35;;;;;;;2.47;1.23;;;17.40;55.40;;;;;;20738;6835;117722;-70
2023/08/04 03:08:01;;;;;;;2.53;1.13;;;17.30;55.70;;;;;;20740;6835;117502;-70
2023/08/04 03:10:26;;;;;;;1.77;1.23;;;17.10;55.80;;;;;;20728;6835;117376;-70
2023/08/04 03:12:52;;;;;;;1.50;1.07;;;17.00;56.00;;;;;;20532;6835;277544;-70
2023/08/04 03:15:18;;;;;;;1.20;1.12;;;17.70;55.50;;;;;;20511;6839;309249;-70
2023/08/04 03:17:44;;;;;;;1.87;1.27;;;17.70;55.00;;;;;;20515;6837;341831;-70
2023/08/04 03:20:09;;;;;;;3.08;1.30;;;18.00;54.00;;;;;;20519;6837;311988;-71
2023/08/04 03:22:35;;;;;;;1.10;1.00;;;18.30;53.70;;;;;;20660;6854;123248;-70
2023/08/04 03:25:01;;;;;;;1.20;1.20;;;18.20;53.30;;;;;;20515;6839;341783;-71
2023/08/04 03:27:27;;;;;;;1.23;1.13;;;18.20;53.30;;;;;;20517;6839;278670;-72
2023/08/04 03:29:53;;;;;;;1.58;1.30;;;18.50;52.30;;;;;;20515;6839;307509;-70
2023/08/04 03:32:19;;;;;;;1.80;1.13;;;18.50;52.30;;;;;;20516;6839;282406;-70
2023/08/04 03:34:45;;;;;;;1.27;1.27;;;18.30;52.40;;;;;;20726;6834;122005;-71
2023/08/04 03:37:11;;;;;;;1.60;1.10;;;18.20;53.40;;;;;;20516;6839;309324;-71
2023/08/04 03:39:37;;;;;;;1.47;1.27;;;18.20;52.90;;;;;;20743;6834;117105;-70
2023/08/04 03:42:02;;;;;;;1.80;1.33;;;17.90;53.00;;;;;;20529;6839;316135;-69
2023/08/04 03:44:28;;;;;;;1.90;1.30;;;17.90;53.30;;;;;;20451;6854;308144;-70
2023/08/04 03:46:54;;;;;;;1.20;1.10;;;18.00;53.10;;;;;;20735;6839;117316;-71
2023/08/04 03:49:19;;;;;;;1.63;1.20;;;17.90;53.40;;;;;;20729;6839;119161;-70
2023/08/04 03:51:45;;;;;;;1.65;1.30;;;17.50;53.90;;;;;;20736;6839;117483;-70
2023/08/04 03:54:11;;;;;;;2.03;0.90;;;16.90;54.70;;;;;;20728;6839;117114;-70
2023/08/04 03:56:37;;;;;;;4.30;1.33;;;16.90;54.70;;;;;;20714;6839;117230;-70
2023/08/04 03:59:02;;;;;;;0.95;0.93;;;16.70;55.00;;;;;;20749;6835;117691;-70
2023/08/04 04:01:28;;;;;;;1.07;1.07;;;16.70;56.00;;;;;;20526;6835;308925;-70
2023/08/04 04:03:54;;;;;;;2.00;1.20;;;16.70;55.90;;;;;;20480;6839;278392;-69
2023/08/04 04:06:20;;;;;;;1.42;1.00;;;17.10;55.00;;;;;;20458;6839;305591;-70
2023/08/04 04:08:45;;;;;;;1.00;0.90;;;17.40;54.20;;;;;;20719;6839;119417;-70
2023/08/04 04:11:11;;;;;;;1.10;1.00;;;17.30;54.30;;;;;;20520;6839;291180;-73
2023/08/04 04:13:36;;;;;;;0.90;0.80;;;17.40;54.40;;;;;;20748;6835;117000;-72
2023/08/04 04:16:02;;;;;;;1.20;1.10;;;17.30;54.50;;;;;;20755;6835;117056;-69
2023/08/04 04:18:28;;;;;;;1.23;0.90;;;17.00;54.90;;;;;;20508;6839;280227;-69
2023/08/04 04:20:53;;;;;;;0.90;0.90;;;17.20;54.60;;;;;;20541;6835;306316;-69
2023/08/04 04:23:18;;;;;;;1.40;1.05;;;17.50;54.10;;;;;;20531;6839;277538;-69
2023/08/04 04:25:44;;;;;;;1.03;0.80;;;17.80;53.70;;;;;;20518;6839;313899;-69
2023/08/04 04:28:10;;;;;;;1.20;1.02;;;18.00;53.50;;;;;;20478;6854;307589;-69
2023/08/04 04:30:36;;;;;;;2.58;1.20;;;18.10;53.20;;;;;;20715;6838;118013;-69
2023/08/04 04:33:01;;;;;;;1.20;0.90;;;18.00;53.10;;;;;;20729;6839;117181;-69
2023/08/04 04:35:27;;;;;;;1.73;0.82;;;17.70;53.80;;;;;;20739;6839;117139;-69
2023/08/04 04:37:53;;;;;;;1.17;1.10;;;17.50;54.50;;;;;;20732;6839;117119;-68
2023/08/04 04:40:18;;;;;;;1.60;1.20;;;17.30;54.90;;;;;;20533;6839;295969;-69
2023/08/04 04:42:44;;;;;;;1.98;1.02;;;17.90;55.20;;;;;;20503;6839;430834;-69
2023/08/04 04:45:10;;;;;;;2.42;1.40;;;17.90;54.80;;;;;;20541;6834;306560;-69
2023/08/04 04:47:36;;;;;;;2.20;1.07;;;18.30;54.10;;;;;;20728;6839;117169;-69
2023/08/04 04:50:02;;;;;;;2.00;0.93;;;18.20;54.80;;;;;;20751;6839;117546;-69
2023/08/04 04:52:33;;;;;;;2.13;1.10;;;18.00;54.50;;;;;;20702;6845;117731;-69
2023/08/04 04:55:02;;;;;;;4.00;1.23;;;17.70;54.90;;;;;;20532;6834;277537;-69
2023/08/04 04:57:25;;;;;;;1.52;0.70;;;17.90;55.50;;;;;;20724;6834;117031;-69
2023/08/04 04:59:50;;;;;;;1.80;1.00;;;17.90;55.10;;;;;;20728;6839;117159;-69
2023/08/04 05:02:16;;;;;;;1.20;1.10;;;17.70;55.40;;;;;;20533;6837;278746;-69
2023/08/04 05:04:41;;;;;;;1.37;1.10;;;17.90;55.50;;;;;;20503;6839;336967;-72
2023/08/04 05:07:07;;;;;;;2.28;1.30;;;18.30;54.80;;;;;;20503;6839;282278;-70
2023/08/04 05:09:32;;;;;;;2.17;1.60;;;18.60;54.00;;;;;;20719;6839;122923;-70
2023/08/04 05:11:58;;;;;;;1.33;1.17;;;18.50;54.10;;;;;;20688;6854;117192;-70
2023/08/04 05:14:24;;;;;;;2.27;0.90;;;18.30;54.50;;;;;;20719;6839;117162;-71
2023/08/04 05:16:49;;;;;;;5.70;1.07;;;18.10;55.00;;;;;;20722;6839;118164;-70
2023/08/04 05:19:15;;;;;;;2.30;1.08;;;18.00;55.20;;;;;;20691;6854;117309;-70
2023/08/04 05:21:40;;;;;;;2.57;1.20;;;17.90;55.50;;;;;;20513;6839;308078;-70
2023/08/04 05:24:06;;;;;;;3.33;1.20;;;18.20;55.80;;;;;;20517;6839;312500;-71
2023/08/04 05:26:31;;;;;;;1.90;1.20;;;18.60;54.80;;;;;;20714;6839;117198;-71
2023/08/04 05:28:57;;;;;;;3.62;1.12;;;18.60;54.70;;;;;;20526;6839;286074;-71
2023/08/04 05:31:23;;;;;;;2.27;1.10;;;18.80;54.20;;;;;;20693;6854;118168;-71
2023/08/04 05:33:48;;;;;;;3.95;1.10;;;18.70;54.20;;;;;;20521;6839;311754;-70
2023/08/04 05:36:14;;;;;;;3.47;1.10;;;18.90;53.50;;;;;;20726;6839;118007;-70
2023/08/04 05:38:39;;;;;;;1.50;1.03;;;18.80;53.60;;;;;;20504;6839;280496;-71
2023/08/04 05:41:06;;;;;;;2.12;1.30;;;18.80;53.60;;;;;;20730;6839;117795;-70
2023/08/04 05:43:32;;;;;;;2.67;1.25;;;18.90;53.90;;;;;;20521;6838;312338;-70
2023/08/04 05:46:04;;;;;;;4.67;1.37;;;18.90;53.90;;;;;;20474;6854;303801;-71
2023/08/04 05:48:33;;;;;;;2.17;0.90;;;19.20;53.80;;;;;;20707;6839;127396;-71
2023/08/04 05:50:59;;;;;;;2.43;1.13;;;19.10;54.10;;;;;;20741;6834;121258;-70
2023/08/04 05:53:24;;;;;;;1.73;0.80;;;19.00;54.60;;;;;;20725;6839;118733;-71
2023/08/04 05:55:51;;;;;;;1.08;0.80;;;18.80;55.00;;;;;;20747;6834;122904;-71
2023/08/04 05:58:16;;;;;;;2.97;1.10;;;18.80;55.20;;;;;;20511;6839;337683;-71
2023/08/04 06:00:42;;;;;;;1.73;1.20;;;19.00;54.20;;;;;;20514;6834;278447;-71
2023/08/04 06:03:08;;;;;;;3.28;1.12;;;19.80;53.30;;;;;;20518;6839;307641;-71
2023/08/04 06:05:34;;;;;;;2.12;1.00;;;19.80;53.10;;;;;;20512;6839;341645;-71
2023/08/04 06:08:00;;;;;;;3.77;1.17;;;20.00;52.50;;;;;;20724;6839;117178;-71
2023/08/04 06:10:25;;;;;;;3.80;1.10;;;20.00;52.60;;;;;;20503;6834;328367;-71
2023/08/04 06:12:51;;;;;;;1.60;0.93;;;20.10;52.50;;;;;;20743;6834;117661;-70
2023/08/04 06:15:17;;;;;;;3.57;1.10;;;19.90;53.60;;;;;;20741;6834;117545;-71
2023/08/04 06:17:43;;;;;;;1.57;0.83;;;19.90;53.00;;;;;;20735;6839;117096;-71
2023/08/04 06:20:09;;;;;;;1.87;1.00;;;19.70;53.20;;;;;;20725;6839;117120;-70
2023/08/04 06:22:35;;;;;;;2.30;1.20;;;19.70;53.60;;;;;;20451;6854;329741;-71
2023/08/04 06:25:00;;;;;;;5.37;1.30;;;19.90;52.70;;;;;;20458;6854;341823;-71
2023/08/04 06:27:26;;;;;;;0.97;0.87;;;20.20;52.60;;;;;;20699;6839;118818;-71
2023/08/04 06:29:52;;;;;;;1.70;1.07;;;20.20;52.80;;;;;;20509;6839;280388;-71
2023/08/04 06:32:17;;;;;;;5.83;1.23;;;20.30;52.50;;;;;;20660;6854;117842;-71
2023/08/04 06:34:43;;;;;;;3.67;1.00;;;20.40;52.70;;;;;;20679;6839;117771;-70
2023/08/04 06:37:08;;;;;;;1.93;1.07;;;20.30;53.00;;;;;;20684;6845;118853;-70
2023/08/04 06:39:34;;;;;;;3.12;1.40;;;20.20;53.30;;;;;;20505;6835;277110;-71
2023/08/04 06:41:59;;;;;;;2.08;1.20;;;20.40;52.70;;;;;;20525;6835;346311;-71
2023/08/04 06:44:25;;;;;;;2.83;0.80;;;20.70;52.00;;;;;;20720;6835;117705;-71
2023/08/04 06:46:51;;;;;;;2.53;1.20;;;20.80;52.20;;;;;;20734;6835;117235;-71
2023/08/04 06:49:16;;;;;;;0.93;0.93;;;20.70;52.60;;;;;;20746;6835;117056;-71
2023/08/04 06:51:42;;;;;;;3.12;1.20;;;20.60;53.10;;;;;;20524;6835;311759;-71
2023/08/04 06:54:08;;;;;;;2.03;1.02;;;21.30;51.90;;;;;;20518;6833;312314;-71
2023/08/04 06:56:34;;;;;;;1.57;1.00;;;21.30;51.90;;;;;;20700;6834;117016;-71
2023/08/04 06:58:59;;;;;;;2.83;1.10;;;21.50;52.00;;;;;;20520;6834;280373;-71
2023/08/04 07:01:25;;;;;;;4.30;1.20;;;21.70;51.10;;;;;;20522;6834;277180;-72
2023/08/04 07:03:50;;;;;;;2.63;1.17;;;22.20;49.30;;;;;;20515;6839;343578;-71
2023/08/04 07:06:16;;;;;;;1.23;0.97;;;22.50;48.40;;;;;;20688;6854;117153;-71
2023/08/04 07:08:41;;;;;;;1.83;1.07;;;22.50;48.70;;;;;;20718;6839;117709;-70
2023/08/04 07:11:13;;;;;;;2.57;0.90;;;22.30;49.20;;;;;;20735;6839;117348;-71
2023/08/04 07:13:38;;;;;;;2.30;0.90;;;22.10;49.70;;;;;;20654;6854;117755;-71
2023/08/04 07:16:04;;;;;;;1.30;0.80;;;22.00;50.00;;;;;;20506;6839;335340;-70
2023/08/04 07:18:30;;;;;;;1.10;1.03;;;22.10;48.50;;;;;;20689;6839;120399;-72
2023/08/04 07:20:55;;;;;;;1.27;0.90;;;22.10;48.90;;;;;;20727;6834;117289;-71
2023/08/04 07:23:21;;;;;;;1.12;1.02;;;22.00;49.10;;;;;;20480;6839;296161;-71
2023/08/04 07:25:46;;;;;;;0.95;0.90;;;22.20;47.50;;;;;;20742;6834;120000;-70
2023/08/04 07:28:12;;;;;;;2.00;0.93;;;22.20;48.00;;;;;;20729;6839;117101;-71
2023/08/04 07:30:38;;;;;;;1.37;0.93;;;22.10;48.40;;;;;;20666;6854;117616;-71
2023/08/04 07:33:05;;;;;;;0.95;0.95;;;22.10;48.90;;;;;;20670;6854;117424;-71
2023/08/04 07:35:29;;;;;;;1.57;0.80;;;22.00;49.40;;;;;;20710;6839;118488;-71
2023/08/04 07:37:54;;;;;;;1.20;0.83;;;22.00;49.70;;;;;;20721;6839;117627;-71
2023/08/04 07:40:20;;;;;;;1.58;1.00;;;22.00;49.80;;;;;;20500;6839;336458;-71
2023/08/04 07:42:46;;;;;;;2.33;0.90;;;22.50;48.70;;;;;;20723;6835;120024;-71
2023/08/04 07:45:12;;;;;;;0.73;0.73;;;22.40;48.30;;;;;;20514;6839;337187;-71
2023/08/04 07:47:37;;;;;;;2.43;0.87;;;22.80;47.10;;;;;;20514;6839;291204;-72
2023/08/04 07:50:03;;;;;;;0.88;0.88;;;23.30;46.50;;;;;;20519;6839;337195;-72
2023/08/04 07:52:28;;;;;;;3.00;1.00;;;23.80;45.60;;;;;;20704;6839;117202;-72
2023/08/04 07:54:54;;;;;;;1.20;0.90;;;23.90;45.80;;;;;;20744;6835;117615;-71
2023/08/04 07:57:20;;;;;;;2.95;1.00;;;23.90;46.20;;;;;;20524;6839;308729;-71
2023/08/04 07:59:45;;;;;;;0.90;0.80;;;24.10;45.60;;;;;;20751;6835;117056;-72
2023/08/04 08:02:11;;;;;;;0.98;0.90;;;24.30;45.80;;;;;;20521;6839;277618;-71
2023/08/04 08:04:36;;;;;;;0.80;0.80;;;24.70;43.80;;;;;;20667;6854;140464;-71
2023/08/04 08:07:02;;;;;;;3.53;1.55;;;24.80;44.30;;;;;;20524;6838;305960;-72
2023/08/04 08:09:27;;;;;;;5.23;3.67;;;25.10;43.40;;;;;;20734;6839;117127;-72
2023/08/04 08:11:53;;;;;;;1.20;1.10;;;25.20;43.80;;;;;;20462;6854;311035;-71
2023/08/04 08:14:19;;;;;;;4.33;3.07;;;25.50;42.20;;;;;;20726;6839;117110;-71
2023/08/04 08:16:44;;;;;;;1.08;0.85;;;25.50;43.10;;;;;;20491;6839;397549;-72
2023/08/04 08:19:10;;;;;;;1.20;0.93;;;25.70;41.90;;;;;;20724;6839;119425;-71
2023/08/04 08:21:35;;;;;;;1.50;1.12;;;25.70;42.40;;;;;;20519;6839;279001;-72
2023/08/04 08:24:01;;;;;;;1.17;1.10;;;25.80;42.90;;;;;;20745;6834;117035;-71
2023/08/04 08:26:26;;;;;;;2.10;0.80;;;26.00;42.50;;;;;;20496;6839;278899;-72
2023/08/04 08:28:52;;;;;;;1.30;0.93;;;26.10;41.70;;;;;;20523;6839;277920;-71
2023/08/04 08:31:18;;;;;;;0.50;0.50;;;26.40;40.30;;;;;;20680;6854;120138;-71
2023/08/04 08:33:43;;;;;;;2.17;0.95;;;26.40;40.80;;;;;;20512;6839;307010;-72
2023/08/04 08:36:09;;;;;;;1.70;0.77;;;26.50;40.90;;;;;;20687;6854;117256;-71
2023/08/04 08:38:35;;;;;;;2.00;0.70;;;26.50;40.90;;;;;;20707;6839;140903;-72
2023/08/04 08:41:01;;;;;;;0.93;0.87;;;26.50;41.90;;;;;;20680;6854;117942;-72
2023/08/04 08:43:27;;;;;;;1.35;0.90;;;26.40;42.30;;;;;;20518;6839;307025;-73
2023/08/04 08:45:54;;;;;;;2.10;1.00;;;26.70;40.50;;;;;;20716;6839;118035;-72
2023/08/04 08:48:19;;;;;;;1.50;0.83;;;26.80;41.80;;;;;;20745;6835;117470;-71
2023/08/04 08:50:45;;;;;;;1.80;1.00;;;26.70;41.70;;;;;;20501;6839;278332;-72
2023/08/04 08:53:13;;;;;;;2.70;0.98;;;27.00;40.00;;;;;;20527;6835;312134;-72
2023/08/04 08:55:39;;;;;;;0.70;0.70;;;27.50;39.50;;;;;;20730;6839;119177;-71
2023/08/04 08:58:04;;;;;;;1.10;0.70;;;27.70;39.90;;;;;;20742;6835;119947;-72
2023/08/04 09:00:30;;;;;;;0.80;0.70;;;27.60;40.00;;;;;;20495;6839;312519;-73
2023/08/04 09:02:55;;;;;;;2.50;0.70;;;27.70;39.50;;;;;;20745;6835;117685;-71
2023/08/04 09:05:24;;;;;;;3.35;0.95;;;27.60;39.80;;;;;;20524;6835;278930;-72
2023/08/04 09:07:49;;;;;;;2.23;0.90;;;27.50;38.20;;;;;;20742;6835;117491;-71
2023/08/04 09:10:15;;;;;;;0.97;0.70;;;27.40;39.20;;;;;;20725;6839;117166;-71
2023/08/04 09:12:41;;;;;;;2.80;1.30;;;27.20;40.10;;;;;;20512;6835;306161;-72
2023/08/04 09:15:06;;;;;;;1.00;0.70;;;27.40;40.10;;;;;;20720;6839;118797;-72
2023/08/04 09:17:33;;;;;;;2.13;0.87;;;27.60;39.60;;;;;;20686;6853;119344;-72
2023/08/04 09:19:58;;;;;;;1.40;0.90;;;27.60;39.60;;;;;;20701;6839;119932;-72
2023/08/04 09:22:24;;;;;;;0.80;0.80;;;27.60;39.60;;;;;;20725;6839;117009;-71
2023/08/04 09:25:00;;;;;;;3.00;0.98;;;27.80;40.30;;;;;;20494;6839;298147;-71
2023/08/04 09:27:31;;;;;;;2.80;0.73;;;28.20;37.90;;;;;;20741;6834;117088;-71
2023/08/04 09:29:57;;;;;;;1.23;0.60;;;28.20;37.90;;;;;;20722;6839;117989;-71
2023/08/04 09:32:24;;;;;;;2.08;0.70;;;27.90;38.50;;;;;;20729;6839;117114;-71
2023/08/04 09:35:03;;;;;;;1.20;0.80;;;27.70;39.00;;;;;;20503;6839;305946;-72
2023/08/04 09:37:31;;;;;;;1.80;0.90;;;27.70;38.40;;;;;;20530;6834;321242;-72
2023/08/04 09:39:57;;;;;;;6.87;1.40;;;27.90;38.10;;;;;;20519;6839;307768;-72
2023/08/04 09:42:22;;;;;;;3.70;0.80;;;28.00;37.30;;;;;;20758;6834;118196;-72
2023/08/04 09:44:49;;;;;;;0.83;0.80;;;27.60;39.00;;;;;;20707;6839;120720;-73
2023/08/04 09:47:14;;;;;;;1.87;0.90;;;27.60;39.00;;;;;;20529;6834;311288;-72
2023/08/04 09:49:41;;;;;;;1.00;0.87;;;28.10;38.50;;;;;;20511;6839;310526;-72
2023/08/04 09:52:07;;;;;;;1.60;0.90;;;28.40;37.80;;;;;;20519;6839;278506;-72
2023/08/04 09:54:32;;;;;;;1.00;0.90;;;28.40;37.80;;;;;;20722;6835;117113;-73
2023/08/04 09:56:58;;;;;;;0.88;0.68;;;28.40;37.60;;;;;;20516;6839;308344;-72
2023/08/04 09:59:24;;;;;;;0.50;0.50;;;28.60;39.00;;;;;;20732;6839;117194;-72
2023/08/04 10:01:49;;;;;;;0.62;0.50;;;28.70;38.20;;;;;;20518;6839;278223;-72
2023/08/04 10:04:15;;;;;;;2.50;0.77;;;28.90;36.30;;;;;;20526;6835;308774;-74
2023/08/04 10:06:40;;;;;;;1.67;0.50;;;29.20;36.50;;;;;;20498;6839;277766;-73
2023/08/04 10:09:06;;;;;;;0.70;0.60;;;29.60;35.10;;;;;;20526;6835;291395;-72
2023/08/04 10:12:09;;;;;;;0.40;0.40;;;29.90;34.30;;;;;;20401;6839;339314;-73
2023/08/04 10:14:36;;;;;;;0.67;0.30;;;30.10;34.00;;;;;;20492;6837;121242;-74
2023/08/04 10:17:03;;;;;;;0.57;0.50;;;29.80;34.90;;;;;;20456;6837;313863;-73
2023/08/04 10:19:29;;;;;;;1.20;0.50;;;29.60;33.80;;;;;;20699;6837;117172;-72
2023/08/04 10:21:55;;;;;;;1.60;0.50;;;29.40;34.60;;;;;;20742;6837;121099;-72
2023/08/04 10:24:20;;;;;;;0.90;0.50;;;29.10;35.90;;;;;;20462;6839;278001;-73
2023/08/04 10:26:46;;;;;;;0.73;0.70;;;29.10;36.40;;;;;;20679;6835;190250;-74
2023/08/04 10:29:11;;;;;;;1.27;0.70;;;29.30;36.40;;;;;;20461;6833;301712;-72
2023/08/04 10:31:55;;;;;;;1.57;0.80;;;29.50;35.00;;;;;;20729;6834;117006;-72
2023/08/04 10:34:32;;;;;;;1.03;0.80;;;29.70;35.90;;;;;;20502;6834;302572;-74
2023/08/04 10:37:12;;;;;;;0.93;0.70;;;30.00;34.90;;;;;;20456;6839;337235;-70
2023/08/04 10:39:37;;;;;;;4.13;0.67;;;30.00;34.90;;;;;;20694;6839;117208;-71
2023/08/04 10:42:03;;;;;;;3.17;0.70;;;29.60;35.50;;;;;;20719;6834;117077;-71
2023/08/04 10:44:29;;;;;;;2.40;0.60;;;29.10;36.30;;;;;;20689;6834;117543;-71
2023/08/04 10:47:01;;;;;;;0.50;0.50;;;28.70;36.70;;;;;;20697;6834;66391;-71
2023/08/04 10:49:26;;;;;;;0.70;0.40;;;28.40;37.50;;;;;;20514;6834;306841;-71
2023/08/04 10:51:52;;;;;;;0.57;0.43;;;28.40;36.60;;;;;;20463;6854;312073;-72
2023/08/04 10:54:17;;;;;;;2.30;0.70;;;28.60;36.50;;;;;;20722;6839;117485;-71
2023/08/04 10:56:45;;;;;;;1.20;0.40;;;28.50;36.90;;;;;;20713;6839;140456;-72
2023/08/04 10:59:11;;;;;;;0.80;0.33;;;28.30;37.30;;;;;;20671;6854;117482;-72
2023/08/04 11:01:36;;;;;;;0.62;0.40;;;28.10;37.20;;;;;;20519;6839;336971;-72
2023/08/04 11:04:03;;;;;;;1.20;0.52;;;28.60;37.60;;;;;;20521;6839;337180;-72
2023/08/04 11:06:28;;;;;;;1.10;0.57;;;28.60;36.90;;;;;;20676;6854;129238;-72
2023/08/04 11:08:54;;;;;;;0.50;0.47;;;28.70;37.10;;;;;;20740;6839;117480;-72
2023/08/04 11:11:19;;;;;;;0.70;0.40;;;28.70;37.40;;;;;;20519;6839;307418;-72
2023/08/04 11:13:45;;;;;;;1.00;0.50;;;28.90;35.70;;;;;;20522;6839;277782;-71
2023/08/04 11:16:11;;;;;;;0.33;0.33;;;29.20;36.10;;;;;;20681;6854;119795;-72
2023/08/04 11:18:37;;;;;;;0.53;0.50;;;29.20;36.30;;;;;;20695;6839;117521;-72
2023/08/04 11:21:02;;;;;;;1.50;0.40;;;29.00;36.50;;;;;;20723;6839;117320;-72
2023/08/04 11:23:28;;;;;;;0.90;0.50;;;28.90;35.60;;;;;;20505;6839;307245;-72
2023/08/04 11:25:54;;;;;;;1.33;0.70;;;28.80;35.50;;;;;;20526;6835;277689;-72
2023/08/04 11:28:20;;;;;;;0.60;0.50;;;28.70;35.70;;;;;;20708;6839;117051;-72
2023/08/04 11:30:46;;;;;;;1.00;0.50;;;28.70;36.10;;;;;;20522;6835;277502;-72
2023/08/04 11:33:11;;;;;;;0.88;0.50;;;28.60;35.90;;;;;;20747;6839;117887;-72
2023/08/04 11:35:37;;;;;;;1.60;0.40;;;28.30;36.10;;;;;;20755;6835;117559;-71
2023/08/04 11:38:05;;;;;;;0.47;0.40;;;27.90;36.40;;;;;;20736;6839;117201;-72
2023/08/04 11:40:31;;;;;;;0.60;0.50;;;27.50;37.10;;;;;;20527;6832;332328;-72
2023/08/04 11:42:56;;;;;;;0.70;0.40;;;27.70;37.10;;;;;;20737;6839;117739;-71
2023/08/04 11:45:22;;;;;;;2.00;0.40;;;27.60;37.40;;;;;;20537;6834;276623;-72
2023/08/04 11:47:48;;;;;;;1.57;0.70;;;27.80;37.80;;;;;;20525;6834;279889;-72
2023/08/04 11:50:13;;;;;;;0.80;0.50;;;28.10;37.90;;;;;;20721;6839;117075;-72
2023/08/04 11:52:39;;;;;;;1.23;0.70;;;27.90;38.00;;;;;;20702;6839;117933;-72
2023/08/04 11:55:04;;;;;;;0.97;0.40;;;27.40;38.50;;;;;;20754;6834;118127;-73
2023/08/04 11:57:30;;;;;;;0.40;0.40;;;26.90;39.20;;;;;;20517;6839;302973;-72
2023/08/04 11:59:57;;;;;;;0.53;0.43;;;26.60;40.80;;;;;;20754;6834;118642;-72
2023/08/04 12:02:22;;;;;;;1.83;0.70;;;26.60;41.20;;;;;;20523;6839;277496;-72
2023/08/04 12:05:08;;;;;;;0.83;0.63;;;26.50;42.70;;;;;;20711;6839;117357;-73
2023/08/04 12:07:33;;;;;;;1.20;0.70;;;26.50;42.80;;;;;;20534;6834;311866;-72
2023/08/04 12:09:59;;;;;;;1.42;0.70;;;26.80;44.10;;;;;;20523;6839;324329;-72
2023/08/04 12:12:38;;;;;;;1.40;0.73;;;27.20;43.30;;;;;;20721;6834;117467;-72
2023/08/04 12:15:04;;;;;;;0.70;0.70;;;27.30;42.80;;;;;;20737;6839;117633;-73
2023/08/04 12:17:42;;;;;;;0.97;0.60;;;27.00;42.70;;;;;;20731;6839;117043;-72
2023/08/04 12:20:08;;;;;;;1.00;1.00;;;26.80;42.90;;;;;;20740;6839;117954;-72
2023/08/04 12:22:33;;;;;;;0.80;0.80;;;26.60;42.80;;;;;;20441;6854;318213;-73
2023/08/04 12:24:59;;;;;;;0.60;0.50;;;26.80;42.50;;;;;;20688;6854;117609;-72
2023/08/04 12:27:24;;;;;;;0.60;0.40;;;26.90;42.20;;;;;;20741;6839;117197;-72
2023/08/04 12:29:50;;;;;;;0.30;0.30;;;26.90;42.00;;;;;;20743;6839;117098;-72